createdAt,value
2022-10-19T00:00:47.244Z,4.08
2022-10-19T00:03:55.334Z,4.92
2022-10-19T00:06:58.363Z,4.94
2022-10-19T00:10:01.550Z,4.70
2022-10-19T00:13:04.675Z,4.43
2022-10-19T00:16:14.147Z,4.17
2022-10-19T00:19:21.377Z,3.95
2022-10-19T00:22:24.397Z,3.78
2022-10-19T00:25:27.464Z,3.73
2022-10-19T00:28:30.877Z,3.68
2022-10-19T00:31:34.251Z,3.64
2022-10-19T00:34:37.399Z,3.65
2022-10-19T00:37:40.812Z,3.68
2022-10-19T00:40:44.600Z,3.74
2022-10-19T00:43:58.374Z,3.85
2022-10-19T00:47:05.643Z,3.91
2022-10-19T00:50:09.481Z,4.01
2022-10-19T00:53:12.903Z,4.11
2022-10-19T00:56:17.783Z,4.22
2022-10-19T00:59:22.619Z,4.35
2022-10-19T01:02:25.393Z,4.54
2022-10-19T01:05:29.548Z,4.57
2022-10-19T01:08:33.364Z,4.64
2022-10-19T01:11:54.961Z,4.77
2022-10-19T01:15:07.457Z,4.87
2022-10-19T01:18:21.734Z,4.98
2022-10-19T01:21:38.004Z,5.04
2022-10-19T01:25:19.221Z,5.14
2022-10-19T01:28:50.150Z,5.23
2022-10-19T01:32:04.714Z,5.29
2022-10-19T01:35:18.656Z,5.36
2022-10-19T01:38:35.875Z,5.45
2022-10-19T01:41:57.748Z,5.58
2022-10-19T01:45:06.039Z,5.67
2022-10-19T01:48:31.455Z,5.81
2022-10-19T01:51:40.075Z,5.87
2022-10-19T01:54:50.885Z,5.93
2022-10-19T01:58:00.866Z,5.96
2022-10-19T02:01:08.108Z,6.06
2022-10-19T02:04:14.013Z,6.21
2022-10-19T02:07:17.661Z,6.34
2022-10-19T02:10:21.737Z,6.48
2022-10-19T02:13:27.225Z,6.69
2022-10-19T02:16:44.160Z,6.89
2022-10-19T02:19:47.129Z,7.02
2022-10-19T02:22:50.596Z,7.16
2022-10-19T02:25:54.281Z,7.31
2022-10-19T02:28:59.600Z,7.43
2022-10-19T02:32:03.438Z,7.53
2022-10-19T02:35:07.081Z,7.65
2022-10-19T02:38:12.781Z,7.81
2022-10-19T02:41:33.820Z,7.91
2022-10-19T02:44:54.115Z,7.99
2022-10-19T02:48:01.893Z,8.10
2022-10-19T02:51:05.002Z,8.24
2022-10-19T02:54:09.234Z,8.36
2022-10-19T02:57:24.515Z,8.54
2022-10-19T03:00:27.613Z,8.69
2022-10-19T03:03:30.568Z,8.91
2022-10-19T03:06:33.631Z,9.08
2022-10-19T03:09:40.924Z,9.26
2022-10-19T03:12:44.024Z,9.46
2022-10-19T03:15:48.079Z,9.62
2022-10-19T03:18:51.972Z,9.68
2022-10-19T03:21:55.004Z,9.78
2022-10-19T03:24:57.978Z,9.89
2022-10-19T03:28:01.093Z,9.92
2022-10-19T03:31:04.230Z,9.89
2022-10-19T03:34:07.382Z,9.90
2022-10-19T03:37:10.805Z,9.91
2022-10-19T03:40:13.759Z,9.90
2022-10-19T03:43:16.835Z,9.92
2022-10-19T03:46:20.563Z,9.90
2022-10-19T03:49:23.622Z,9.95
2022-10-19T03:52:26.664Z,10.02
2022-10-19T03:55:31.283Z,10.12
2022-10-19T03:58:36.518Z,10.13
2022-10-19T04:01:42.220Z,10.12
2022-10-19T04:04:45.340Z,10.17
2022-10-19T04:07:48.391Z,10.16
2022-10-19T04:10:51.501Z,10.27
2022-10-19T04:13:56.145Z,10.34
2022-10-19T04:16:59.184Z,10.39
2022-10-19T04:20:02.299Z,10.41
2022-10-19T04:23:05.350Z,10.50
2022-10-19T04:26:09.177Z,10.54
2022-10-19T04:29:12.664Z,10.63
2022-10-19T04:32:15.690Z,10.69
2022-10-19T04:35:18.766Z,10.78
2022-10-19T04:38:21.871Z,10.83
2022-10-19T04:41:25.527Z,10.83
2022-10-19T04:44:28.503Z,10.77
2022-10-19T04:47:31.799Z,10.79
2022-10-19T04:50:36.283Z,10.86
2022-10-19T04:53:42.618Z,10.96
2022-10-19T04:56:45.295Z,11.14
2022-10-19T04:59:48.459Z,11.13
2022-10-19T05:02:51.515Z,11.15
2022-10-19T05:05:54.622Z,11.08
2022-10-19T05:08:58.339Z,11.11
2022-10-19T05:12:01.360Z,11.22
2022-10-19T05:15:05.232Z,11.31
2022-10-19T05:18:08.301Z,11.28
2022-10-19T05:21:15.657Z,11.39
2022-10-19T05:24:18.817Z,11.49
2022-10-19T05:27:22.830Z,11.55
2022-10-19T05:30:25.888Z,11.65
2022-10-19T05:33:28.906Z,11.71
2022-10-19T05:36:37.636Z,11.90
2022-10-19T05:39:41.004Z,11.76
2022-10-19T05:42:44.317Z,11.48
2022-10-19T05:45:47.330Z,11.14
2022-10-19T05:48:50.634Z,10.86
2022-10-19T05:51:53.836Z,10.72
2022-10-19T05:54:59.049Z,10.76
2022-10-19T05:58:02.157Z,10.90
2022-10-19T06:01:05.424Z,11.15
2022-10-19T06:04:08.890Z,11.47
2022-10-19T06:07:13.264Z,11.61
2022-10-19T06:10:16.543Z,11.71
2022-10-19T06:13:20.591Z,11.76
2022-10-19T06:16:26.362Z,11.78
2022-10-19T06:19:29.364Z,11.86
2022-10-19T06:22:32.472Z,11.79
2022-10-19T06:25:36.774Z,11.79
2022-10-19T06:28:41.909Z,11.74
2022-10-19T06:31:46.254Z,11.67
2022-10-19T06:34:50.855Z,11.66
2022-10-19T06:37:58.419Z,11.51
2022-10-19T06:41:01.983Z,11.50
2022-10-19T06:44:05.008Z,11.60
2022-10-19T06:47:08.001Z,12.03
2022-10-19T06:50:12.712Z,12.27
2022-10-19T06:53:15.893Z,12.02
2022-10-19T06:56:19.621Z,11.76
2022-10-19T06:59:22.693Z,11.71
2022-10-19T07:02:25.808Z,11.69
2022-10-19T07:05:28.881Z,11.78
2022-10-19T07:08:33.645Z,11.75
2022-10-19T07:11:36.874Z,11.77
2022-10-19T07:14:40.776Z,11.74
2022-10-19T07:17:43.767Z,11.66
2022-10-19T07:20:55.718Z,11.67
2022-10-19T07:23:58.960Z,11.56
2022-10-19T07:27:01.962Z,11.41
2022-10-19T07:30:05.362Z,11.37
2022-10-19T07:33:08.494Z,11.23
2022-10-19T07:36:13.700Z,11.23
2022-10-19T07:39:20.342Z,11.10
2022-10-19T07:42:23.395Z,10.96
2022-10-19T07:45:26.454Z,10.89
2022-10-19T07:48:30.015Z,10.73
2022-10-19T07:51:33.100Z,10.55
2022-10-19T07:54:36.426Z,10.46
2022-10-19T07:57:41.603Z,10.40
2022-10-19T08:00:47.036Z,10.30
2022-10-19T08:07:15.255Z,10.35
2022-10-19T08:10:18.306Z,10.27
2022-10-19T08:13:21.825Z,10.09
2022-10-19T08:16:37.299Z,9.98
2022-10-19T08:19:43.815Z,10.04
2022-10-19T08:22:47.422Z,10.17
2022-10-19T08:25:51.284Z,10.45
2022-10-19T08:28:59.407Z,10.49
2022-10-19T08:32:02.486Z,10.39
2022-10-19T08:35:09.994Z,10.29
2022-10-19T08:38:14.014Z,10.19
2022-10-19T08:41:25.799Z,10.19
2022-10-19T08:44:37.701Z,10.10
2022-10-19T08:47:52.582Z,10.02
2022-10-19T08:50:57.974Z,9.92
2022-10-19T08:54:03.582Z,9.86
2022-10-19T08:57:26.280Z,9.73
2022-10-19T09:00:41.435Z,9.67
2022-10-19T09:03:56.135Z,9.58
2022-10-19T09:07:30.376Z,9.39
2022-10-19T09:10:37.556Z,9.20
2022-10-19T09:14:04.365Z,9.02
2022-10-19T09:17:17.131Z,8.88
2022-10-19T09:20:30.354Z,8.73
2022-10-19T09:23:48.759Z,8.61
2022-10-19T09:26:58.337Z,8.45
2022-10-19T09:30:08.099Z,8.31
2022-10-19T09:33:19.903Z,8.21
2022-10-19T09:36:39.228Z,8.14
2022-10-19T09:39:52.446Z,8.03
2022-10-19T09:43:00.021Z,7.96
2022-10-19T09:46:19.517Z,7.93
2022-10-19T09:49:42.919Z,7.80
2022-10-19T09:53:05.925Z,7.65
2022-10-19T09:56:18.082Z,7.55
2022-10-19T09:59:29.201Z,7.50
2022-10-19T10:02:34.100Z,7.43
2022-10-19T10:05:40.318Z,7.34
2022-10-19T10:08:53.197Z,7.31
2022-10-19T10:12:03.381Z,7.29
2022-10-19T10:15:08.105Z,7.24
2022-10-19T10:18:17.888Z,7.14
2022-10-19T10:21:37.049Z,7.09
2022-10-19T10:24:53.013Z,7.01
2022-10-19T10:28:03.086Z,6.93
2022-10-19T10:31:08.810Z,6.89
2022-10-19T10:34:45.566Z,6.85
2022-10-19T10:37:53.903Z,6.80
2022-10-19T10:41:30.314Z,6.82
2022-10-19T10:44:37.199Z,6.83
2022-10-19T10:47:40.482Z,6.82
2022-10-19T10:50:44.673Z,6.80
2022-10-19T10:53:48.191Z,6.73
2022-10-19T10:57:17.140Z,6.68
2022-10-19T11:00:24.678Z,6.63
2022-10-19T11:03:29.901Z,6.58
2022-10-19T11:06:39.620Z,6.53
2022-10-19T11:10:03.482Z,6.50
2022-10-19T11:13:12.168Z,6.41
2022-10-19T11:16:18.569Z,6.35
2022-10-19T11:19:26.555Z,6.28
2022-10-19T11:22:38.789Z,6.25
2022-10-19T11:26:20.329Z,6.20
2022-10-19T11:29:39.251Z,6.10
2022-10-19T11:33:03.562Z,6.05
2022-10-19T11:36:21.741Z,5.98
2022-10-19T11:39:36.996Z,5.92
2022-10-19T11:43:10.433Z,5.85
2022-10-19T11:46:21.400Z,5.79
2022-10-19T11:49:50.639Z,5.74
2022-10-19T11:53:05.542Z,5.71
2022-10-19T11:56:39.336Z,5.72
2022-10-19T12:00:33.775Z,5.66
2022-10-19T12:04:02.211Z,5.58
2022-10-19T12:07:11.158Z,5.53
2022-10-19T12:10:34.785Z,5.49
2022-10-19T12:13:45.212Z,5.46
2022-10-19T12:16:59.979Z,5.39
2022-10-19T12:20:26.069Z,5.31
2022-10-19T12:23:37.329Z,5.34
2022-10-19T12:26:42.106Z,5.31
2022-10-19T12:29:47.168Z,5.31
2022-10-19T12:33:11.779Z,5.26
2022-10-19T12:36:51.184Z,5.20
2022-10-19T12:40:00.275Z,5.19
2022-10-19T12:43:28.537Z,5.15
2022-10-19T12:46:49.598Z,5.10
2022-10-19T12:49:56.862Z,5.04
2022-10-19T12:53:00.070Z,5.00
2022-10-19T12:56:20.598Z,4.94
2022-10-19T12:59:28.149Z,4.91
2022-10-19T13:02:36.248Z,4.84
2022-10-19T13:05:40.401Z,4.76
2022-10-19T13:08:56.087Z,4.74
2022-10-19T13:12:17.668Z,4.77
2022-10-19T13:15:37.779Z,4.77
2022-10-19T13:19:06.608Z,4.77
2022-10-19T13:22:26.526Z,4.77
2022-10-19T13:25:34.059Z,4.72
2022-10-19T13:28:39.694Z,4.68
2022-10-19T13:31:42.746Z,4.59
2022-10-19T13:34:46.974Z,4.51
2022-10-19T13:38:17.721Z,4.44
2022-10-19T13:41:29.384Z,4.26
2022-10-19T13:44:36.196Z,4.19
2022-10-19T13:47:43.385Z,4.15
2022-10-19T13:50:59.322Z,4.16
2022-10-19T13:54:20.968Z,4.12
2022-10-19T13:57:54.193Z,4.11
2022-10-19T14:01:19.556Z,4.11
2022-10-19T14:04:40.689Z,4.00
2022-10-19T14:08:10.495Z,3.87
2022-10-19T14:11:19.794Z,3.79
2022-10-19T14:14:26.038Z,3.78
2022-10-19T14:17:34.705Z,3.83
2022-10-19T14:20:39.630Z,3.87
2022-10-19T14:23:43.557Z,3.85
2022-10-19T14:26:47.723Z,3.90
2022-10-19T14:29:54.147Z,3.91
2022-10-19T14:33:01.268Z,3.97
2022-10-19T14:36:08.851Z,4.05
2022-10-19T14:39:33.665Z,4.05
2022-10-19T14:42:42.704Z,3.96
2022-10-19T14:45:45.734Z,3.83
2022-10-19T14:48:51.133Z,3.75
2022-10-19T14:52:00.242Z,3.78
2022-10-19T14:55:16.933Z,3.68
2022-10-19T14:58:23.095Z,3.64
2022-10-19T15:01:26.495Z,3.58
2022-10-19T15:04:39.392Z,3.55
2022-10-19T15:07:44.252Z,3.57
2022-10-19T15:10:47.605Z,3.68
2022-10-19T15:14:16.902Z,3.67
2022-10-19T15:17:31.918Z,3.72
2022-10-19T15:20:49.106Z,3.76
2022-10-19T15:24:28.592Z,3.75
2022-10-19T15:27:36.966Z,3.71
2022-10-19T15:30:40.015Z,3.63
2022-10-19T15:33:51.577Z,3.61
2022-10-19T15:37:00.242Z,3.62
2022-10-19T15:40:14.069Z,3.65
2022-10-19T15:43:35.716Z,3.70
2022-10-19T15:46:48.121Z,3.60
2022-10-19T15:50:04.005Z,3.53
2022-10-19T15:53:07.077Z,3.52
2022-10-19T15:56:12.460Z,3.51
2022-10-19T15:59:21.556Z,3.56
2022-10-19T16:02:25.810Z,3.59
2022-10-19T16:05:29.378Z,3.58
2022-10-19T16:08:32.529Z,3.58
2022-10-19T16:11:36.011Z,3.53
2022-10-19T16:14:39.380Z,3.56
2022-10-19T16:17:50.876Z,3.63
2022-10-19T16:20:54.164Z,3.61
2022-10-19T16:23:57.604Z,3.64
2022-10-19T16:27:00.680Z,3.65
2022-10-19T16:30:04.444Z,3.63
2022-10-19T16:33:07.483Z,3.59
2022-10-19T16:36:10.955Z,3.60
2022-10-19T16:39:14.004Z,3.60
2022-10-19T16:42:17.049Z,3.66
2022-10-19T16:45:20.024Z,3.68
2022-10-19T16:48:24.032Z,3.69
2022-10-19T16:51:45.433Z,3.71
2022-10-19T16:54:48.533Z,3.70
2022-10-19T16:57:53.289Z,3.69
2022-10-19T17:00:56.933Z,3.62
2022-10-19T17:04:00.371Z,3.52
2022-10-19T17:07:03.499Z,3.44
2022-10-19T17:10:06.931Z,3.38
2022-10-19T17:13:09.907Z,3.27
2022-10-19T17:16:13.982Z,3.13
2022-10-19T17:19:17.091Z,3.09
2022-10-19T17:22:20.101Z,3.11
2022-10-19T17:25:24.375Z,3.12
2022-10-19T17:28:27.845Z,3.19
2022-10-19T17:31:31.255Z,3.28
2022-10-19T17:34:34.295Z,3.37
2022-10-19T17:37:37.767Z,3.44
2022-10-19T17:40:41.080Z,3.54
2022-10-19T17:43:46.553Z,3.62
2022-10-19T17:46:50.018Z,3.64
2022-10-19T17:49:53.495Z,3.69
2022-10-19T17:52:56.634Z,3.71
2022-10-19T17:56:04.774Z,3.74
2022-10-19T17:59:09.527Z,3.72
2022-10-19T18:02:12.557Z,3.70
2022-10-19T18:05:15.682Z,3.70
2022-10-19T18:08:18.636Z,3.71
2022-10-19T18:11:25.375Z,3.74
2022-10-19T18:14:28.431Z,3.75
2022-10-19T18:17:31.453Z,3.76
2022-10-19T18:20:34.421Z,3.78
2022-10-19T18:23:37.665Z,3.80
2022-10-19T18:26:40.958Z,3.81
2022-10-19T18:29:44.429Z,3.82
2022-10-19T18:32:51.847Z,3.77
2022-10-19T18:35:59.159Z,3.71
2022-10-19T18:39:04.365Z,3.68
2022-10-19T18:42:07.347Z,3.70
2022-10-19T18:45:10.775Z,3.72
2022-10-19T18:48:13.787Z,3.71
2022-10-19T18:51:20.190Z,3.75
2022-10-19T18:54:23.318Z,3.72
2022-10-19T18:57:30.831Z,3.68
2022-10-19T19:00:35.607Z,3.62
2022-10-19T19:03:40.728Z,3.69
2022-10-19T19:06:45.117Z,3.69
2022-10-19T19:09:48.308Z,3.79
2022-10-19T19:12:52.162Z,3.85
2022-10-19T19:16:00.055Z,3.87
2022-10-19T19:19:03.364Z,3.81
2022-10-19T19:22:08.595Z,3.80
2022-10-19T19:25:12.047Z,3.82
2022-10-19T19:28:16.164Z,3.82
2022-10-19T19:31:21.033Z,3.76
2022-10-19T19:34:23.742Z,3.81
2022-10-19T19:37:26.813Z,3.72
2022-10-19T19:40:29.878Z,3.71
2022-10-19T19:43:35.439Z,3.73
2022-10-19T19:46:39.080Z,3.75
2022-10-19T19:49:42.047Z,3.81
2022-10-19T19:52:45.076Z,3.82
2022-10-19T19:55:49.027Z,3.80
2022-10-19T19:58:56.753Z,3.80
2022-10-19T20:01:59.811Z,3.79
2022-10-19T20:05:02.809Z,3.80
2022-10-19T20:08:06.129Z,3.78
2022-10-19T20:11:14.499Z,3.76
2022-10-19T20:14:19.411Z,3.71
2022-10-19T20:17:24.446Z,3.71
2022-10-19T20:20:27.563Z,3.71
2022-10-19T20:23:31.087Z,3.65
2022-10-19T20:26:34.413Z,3.55
2022-10-19T20:29:37.411Z,3.49
2022-10-19T20:32:40.595Z,3.47
2022-10-19T20:35:43.705Z,3.44
2022-10-19T20:38:49.164Z,3.40
2022-10-19T20:41:52.164Z,3.35
2022-10-19T20:44:56.047Z,3.24
2022-10-19T20:47:59.067Z,3.14
2022-10-19T20:51:09.757Z,3.14
2022-10-19T20:54:13.498Z,3.08
2022-10-19T20:57:16.472Z,2.95
2022-10-19T21:00:19.634Z,2.84
2022-10-19T21:03:24.389Z,2.83
2022-10-19T21:06:29.759Z,2.78
2022-10-19T21:09:32.846Z,2.72
2022-10-19T21:12:36.357Z,2.67
2022-10-19T21:15:39.796Z,2.65
2022-10-19T21:18:43.674Z,2.66
2022-10-19T21:21:49.669Z,2.77
2022-10-19T21:24:52.770Z,2.92
2022-10-19T21:27:55.877Z,3.01
2022-10-19T21:31:04.428Z,3.07
2022-10-19T21:34:09.913Z,2.92
2022-10-19T21:37:12.877Z,2.74
2022-10-19T21:40:16.015Z,2.56
2022-10-19T21:43:19.199Z,2.41
2022-10-19T21:46:23.128Z,2.33
2022-10-19T21:49:26.087Z,2.22
2022-10-19T21:52:29.216Z,2.11
2022-10-19T21:55:35.511Z,2.14
2022-10-19T21:58:38.462Z,2.04
2022-10-19T22:01:42.326Z,1.84
2022-10-19T22:04:45.379Z,1.77
2022-10-19T22:07:48.766Z,1.77
2022-10-19T22:10:51.953Z,1.81
2022-10-19T22:13:59.562Z,1.85
2022-10-19T22:17:02.556Z,1.79
2022-10-19T22:20:06.280Z,1.74
2022-10-19T22:23:09.374Z,1.73
2022-10-19T22:26:17.007Z,1.71
2022-10-19T22:29:20.437Z,1.73
2022-10-19T22:32:23.387Z,1.73
2022-10-19T22:35:26.407Z,1.75
2022-10-19T22:38:30.188Z,1.80
2022-10-19T22:41:33.213Z,1.82
2022-10-19T22:44:36.264Z,1.87
2022-10-19T22:47:39.363Z,1.90
2022-10-19T22:50:42.706Z,1.92
2022-10-19T22:53:45.690Z,1.91
2022-10-19T22:56:48.761Z,1.93
2022-10-19T22:59:51.774Z,1.90
2022-10-19T23:02:54.759Z,2.00
2022-10-19T23:05:58.141Z,2.08
2022-10-19T23:09:01.207Z,2.07
2022-10-19T23:12:04.395Z,1.90
2022-10-19T23:15:08.055Z,1.91
2022-10-19T23:18:11.334Z,1.91
2022-10-19T23:21:15.464Z,1.87
2022-10-19T23:24:18.515Z,1.84
2022-10-19T23:27:21.780Z,1.79
2022-10-19T23:30:24.817Z,1.84
2022-10-19T23:33:27.915Z,1.95
2022-10-19T23:36:30.894Z,1.97
2022-10-19T23:39:33.902Z,1.91
2022-10-19T23:42:36.949Z,2.00
2022-10-19T23:45:40.274Z,2.18
2022-10-19T23:48:43.707Z,2.39
2022-10-19T23:51:46.678Z,2.60
2022-10-19T23:54:49.643Z,2.77
2022-10-19T23:57:52.620Z,2.88
